createdAt,value
2019-06-08T00:00:03.334Z,96198.86
2019-06-08T00:02:32.018Z,96207.05
2019-06-08T00:04:59.356Z,96195.87
2019-06-08T00:07:26.403Z,96210.39
2019-06-08T00:09:53.697Z,96217.09
2019-06-08T00:12:21.311Z,96217.54
2019-06-08T00:14:49.431Z,96201.92
2019-06-08T00:17:30.814Z,96185.50
2019-06-08T00:19:45.701Z,96179.20
2019-06-08T00:22:13.666Z,96173.45
2019-06-08T00:24:40.958Z,96179.20
2019-06-08T00:27:08.265Z,96200.52
2019-06-08T00:29:35.549Z,96207.84
2019-06-08T00:32:02.669Z,96226.72
2019-06-08T00:34:29.701Z,96237.03
2019-06-08T00:36:56.982Z,96251.16
2019-06-08T00:39:25.100Z,96266.73
2019-06-08T00:41:52.196Z,96266.86
2019-06-08T00:44:19.317Z,96270.12
2019-06-08T00:46:46.357Z,96267.99
2019-06-08T00:49:13.404Z,96259.94
2019-06-08T00:51:40.433Z,96257.67
2019-06-08T00:54:07.487Z,96254.73
2019-06-08T00:56:34.516Z,96254.91
2019-06-08T00:59:01.561Z,96250.48
2019-06-08T01:01:28.593Z,96262.74
2019-06-08T01:03:55.902Z,96268.48
2019-06-08T01:06:23.185Z,96272.92
2019-06-08T01:08:50.231Z,96282.80
2019-06-08T01:11:18.621Z,96283.84
2019-06-08T01:13:45.945Z,96277.41
2019-06-08T01:16:13.239Z,96277.85
2019-06-08T01:18:40.287Z,96284.70
2019-06-08T01:21:07.571Z,96290.98
2019-06-08T01:23:34.869Z,96298.39
2019-06-08T01:26:01.910Z,96304.14
2019-06-08T01:28:30.290Z,96312.64
2019-06-08T01:30:58.369Z,96298.03
2019-06-08T01:33:26.598Z,96292.47
2019-06-08T01:35:53.680Z,96295.23
2019-06-08T01:38:21.100Z,96307.81
2019-06-08T01:40:48.343Z,96322.07
2019-06-08T01:43:15.393Z,96340.64
2019-06-08T01:45:42.663Z,96362.80
2019-06-08T01:48:19.996Z,96358.23
2019-06-08T01:50:38.579Z,96346.45
2019-06-08T01:53:05.629Z,96339.42
2019-06-08T01:55:33.239Z,96354.20
2019-06-08T01:58:00.425Z,96343.42
2019-06-08T02:00:30.221Z,96340.97
2019-06-08T02:02:56.439Z,96344.78
2019-06-08T02:05:24.051Z,96334.30
2019-06-08T02:07:51.293Z,96342.16
2019-06-08T02:10:18.623Z,96345.27
2019-06-08T02:12:45.916Z,96351.50
2019-06-08T02:15:13.219Z,96346.44
2019-06-08T02:17:40.261Z,96338.89
2019-06-08T02:20:07.321Z,96338.52
2019-06-08T02:22:35.111Z,96345.22
2019-06-08T02:25:02.429Z,96346.69
2019-06-08T02:27:29.722Z,96350.77
2019-06-08T02:29:57.020Z,96350.27
2019-06-08T02:32:24.106Z,96360.73
2019-06-08T02:34:51.378Z,96365.48
2019-06-08T02:37:18.664Z,96370.22
2019-06-08T02:39:45.729Z,96375.44
2019-06-08T02:42:13.016Z,96367.05
2019-06-08T02:44:40.577Z,96359.33
2019-06-08T02:47:07.823Z,96364.72
2019-06-08T02:49:35.377Z,96366.03
2019-06-08T02:52:02.820Z,96360.30
2019-06-08T02:54:31.936Z,96351.80
2019-06-08T02:56:58.852Z,96351.80
2019-06-08T02:59:25.905Z,96345.72
2019-06-08T03:01:52.948Z,96357.02
2019-06-08T03:04:19.988Z,96367.82
2019-06-08T03:06:47.336Z,96373.87
2019-06-08T03:09:14.367Z,96379.62
2019-06-08T03:11:41.570Z,96372.57
2019-06-08T03:14:08.980Z,96380.27
2019-06-08T03:16:38.343Z,96381.72
2019-06-08T03:19:21.156Z,96386.13
2019-06-08T03:21:35.654Z,96393.09
2019-06-08T03:24:03.111Z,96391.44
2019-06-08T03:26:32.020Z,96391.11
2019-06-08T03:28:59.182Z,96390.27
2019-06-08T03:31:26.510Z,96380.56
2019-06-08T03:33:56.188Z,96394.81
2019-06-08T03:36:23.619Z,96402.52
2019-06-08T03:38:50.654Z,96416.76
2019-06-08T03:41:17.712Z,96420.84
2019-06-08T03:43:45.041Z,96421.80
2019-06-08T03:46:12.094Z,96431.13
2019-06-08T03:48:40.128Z,96429.97
2019-06-08T03:51:08.536Z,96434.22
2019-06-08T03:53:37.767Z,96439.45
2019-06-08T03:56:04.657Z,96443.03
2019-06-08T03:58:34.179Z,96447.61
2019-06-08T04:01:01.337Z,96449.88
2019-06-08T04:03:28.675Z,96458.89
2019-06-08T04:05:56.972Z,96464.95
2019-06-08T04:08:24.023Z,96457.37
2019-06-08T04:10:51.078Z,96469.63
2019-06-08T04:13:18.429Z,96470.59
2019-06-08T04:15:47.012Z,96472.02
2019-06-08T04:18:14.283Z,96470.70
2019-06-08T04:20:45.022Z,96477.23
2019-06-08T04:23:10.384Z,96474.92
2019-06-08T04:25:40.458Z,96470.17
2019-06-08T04:28:07.616Z,96477.70
2019-06-08T04:30:35.041Z,96482.30
2019-06-08T04:33:02.363Z,96473.77
2019-06-08T04:35:30.670Z,96479.13
2019-06-08T04:37:57.703Z,96479.09
2019-06-08T04:40:24.750Z,96475.13
2019-06-08T04:42:52.096Z,96478.20
2019-06-08T04:45:19.479Z,96489.03
2019-06-08T04:47:48.228Z,96485.38
2019-06-08T04:50:22.459Z,96474.34
2019-06-08T04:52:44.931Z,96493.02
2019-06-08T04:55:12.166Z,96495.25
2019-06-08T04:57:41.860Z,96508.49
2019-06-08T05:00:13.114Z,96503.70
2019-06-08T05:02:39.344Z,96495.59
2019-06-08T05:05:06.794Z,96496.41
2019-06-08T05:07:34.147Z,96507.88
2019-06-08T05:10:01.186Z,96503.08
2019-06-08T05:12:29.579Z,96505.39
2019-06-08T05:14:56.944Z,96513.42
2019-06-08T05:17:23.999Z,96513.91
2019-06-08T05:19:51.038Z,96528.33
2019-06-08T05:22:19.554Z,96519.98
2019-06-08T05:24:47.503Z,96512.78
2019-06-08T05:27:14.931Z,96531.98
2019-06-08T05:29:43.248Z,96539.62
2019-06-08T05:32:10.609Z,96540.89
2019-06-08T05:34:37.737Z,96532.93
2019-06-08T05:37:05.936Z,96534.72
2019-06-08T05:39:32.977Z,96543.93
2019-06-08T05:42:00.290Z,96542.30
2019-06-08T05:44:27.645Z,96530.78
2019-06-08T05:46:54.694Z,96532.23
2019-06-08T05:49:22.984Z,96537.21
2019-06-08T05:51:50.553Z,96544.55
2019-06-08T05:54:17.595Z,96550.81
2019-06-08T05:56:45.976Z,96544.27
2019-06-08T05:59:13.530Z,96553.84
2019-06-08T06:01:42.394Z,96560.67
2019-06-08T06:04:09.784Z,96558.67
2019-06-08T06:06:36.827Z,96567.88
2019-06-08T06:09:04.181Z,96566.00
2019-06-08T06:11:31.471Z,96568.23
2019-06-08T06:13:58.523Z,96584.48
2019-06-08T06:16:25.563Z,96582.25
2019-06-08T06:18:52.971Z,96582.07
2019-06-08T06:21:20.323Z,96584.79
2019-06-08T06:23:47.373Z,96595.16
2019-06-08T06:26:14.727Z,96603.53
2019-06-08T06:28:43.251Z,96603.45
2019-06-08T06:31:10.655Z,96607.42
2019-06-08T06:33:37.711Z,96601.94
2019-06-08T06:36:04.759Z,96607.94
2019-06-08T06:38:31.820Z,96612.52
2019-06-08T06:40:59.211Z,96604.21
2019-06-08T06:43:26.270Z,96608.92
2019-06-08T06:45:53.572Z,96626.63
2019-06-08T06:48:23.409Z,96623.34
2019-06-08T06:50:50.422Z,96623.61
2019-06-08T06:53:17.461Z,96627.19
2019-06-08T06:55:44.901Z,96635.92
2019-06-08T06:58:12.232Z,96640.58
2019-06-08T07:00:39.272Z,96644.51
2019-06-08T07:03:06.714Z,96643.06
2019-06-08T07:05:34.048Z,96647.33
2019-06-08T07:08:01.103Z,96646.61
2019-06-08T07:10:28.471Z,96638.13
2019-06-08T07:12:55.804Z,96634.03
2019-06-08T07:15:23.133Z,96639.82
2019-06-08T07:17:50.180Z,96639.75
2019-06-08T07:22:59.080Z,96638.00
2019-06-08T07:25:26.167Z,96639.32
2019-06-08T07:27:54.948Z,96639.50
2019-06-08T07:30:22.007Z,96641.23
2019-06-08T07:32:49.314Z,96638.20
2019-06-08T07:35:16.648Z,96645.17
2019-06-08T07:37:51.667Z,96636.59
2019-06-08T07:40:19.118Z,96640.64
2019-06-08T07:42:47.644Z,96634.75
2019-06-08T07:45:15.382Z,96643.06
2019-06-08T07:47:42.747Z,96649.33
2019-06-08T07:50:10.094Z,96645.27
2019-06-08T07:52:37.140Z,96650.05
2019-06-08T07:55:04.502Z,96646.63
2019-06-08T07:57:32.798Z,96638.43
2019-06-08T08:00:00.151Z,96648.92
2019-06-08T08:02:27.279Z,96649.94
2019-06-08T08:04:54.678Z,96653.20
2019-06-08T08:07:22.093Z,96657.83
2019-06-08T08:09:50.588Z,96649.63
2019-06-08T08:12:17.971Z,96663.03
2019-06-08T08:14:46.007Z,96657.45
2019-06-08T08:17:13.362Z,96665.39
2019-06-08T08:19:40.716Z,96660.85
2019-06-08T08:22:22.264Z,96667.44
2019-06-08T08:24:38.619Z,96659.25
2019-06-08T08:27:08.459Z,96661.50
2019-06-08T08:29:38.019Z,96648.66
2019-06-08T08:32:03.882Z,96665.31
2019-06-08T08:34:33.447Z,96658.05
2019-06-08T08:37:05.932Z,96671.34
2019-06-08T08:39:29.874Z,96663.63
2019-06-08T08:42:02.948Z,96682.06
2019-06-08T08:44:28.232Z,96680.02
2019-06-08T08:46:56.206Z,96669.13
2019-06-08T08:52:17.321Z,96671.08
2019-06-08T08:54:44.130Z,96673.55
2019-06-08T08:57:11.491Z,96674.03
2019-06-08T08:59:38.551Z,96675.22
2019-06-08T09:02:08.374Z,96676.80
2019-06-08T09:04:34.680Z,96668.91
2019-06-08T09:07:05.582Z,96685.22
2019-06-08T09:09:30.822Z,96683.43
2019-06-08T09:12:02.319Z,96686.20
2019-06-08T09:14:28.074Z,96684.63
2019-06-08T09:16:56.366Z,96690.48
2019-06-08T09:19:23.949Z,96700.13
2019-06-08T09:21:52.530Z,96693.75
2019-06-08T09:24:20.303Z,96698.08
2019-06-08T09:26:47.758Z,96694.15
2019-06-08T09:29:18.766Z,96692.95
2019-06-08T09:31:45.217Z,96696.69
2019-06-08T09:34:15.483Z,96692.06
2019-06-08T09:36:41.569Z,96705.52
2019-06-08T09:39:12.616Z,96698.02
2019-06-08T09:41:38.097Z,96695.19
2019-06-08T09:44:08.178Z,96696.69
2019-06-08T09:46:34.599Z,96714.41
2019-06-08T09:49:06.496Z,96712.03
2019-06-08T09:51:31.016Z,96704.45
2019-06-08T09:54:02.069Z,96707.52
2019-06-08T09:56:28.298Z,96712.91
2019-06-08T09:58:57.379Z,96705.57
2019-06-08T10:01:24.278Z,96706.94
2019-06-08T10:03:51.321Z,96714.97
2019-06-08T10:06:18.452Z,96716.50
2019-06-08T10:08:47.933Z,96703.77
2019-06-08T10:11:14.482Z,96703.98
2019-06-08T10:13:43.332Z,96707.52
2019-06-08T10:16:13.035Z,96711.23
2019-06-08T10:18:51.482Z,96710.47
2019-06-08T10:21:21.071Z,96705.53
2019-06-08T10:23:48.398Z,96707.50
2019-06-08T10:26:17.830Z,96716.55
2019-06-08T10:28:45.023Z,96712.50
2019-06-08T10:31:12.102Z,96709.98
2019-06-08T10:33:40.502Z,96708.37
2019-06-08T10:36:12.278Z,96709.23
2019-06-08T10:38:40.910Z,96703.34
2019-06-08T10:41:10.937Z,96700.12
2019-06-08T10:43:34.196Z,96716.45
2019-06-08T10:46:20.707Z,96706.84
2019-06-08T10:48:48.446Z,96719.61
2019-06-08T10:51:14.770Z,96696.44
2019-06-08T10:53:48.386Z,96720.71
2019-06-08T10:56:12.299Z,96704.98
2019-06-08T10:58:39.631Z,96707.53
2019-06-08T11:01:11.148Z,96707.66
2019-06-08T11:06:26.974Z,96703.10
2019-06-08T11:08:54.013Z,96709.35
2019-06-08T11:11:21.312Z,96701.85
2019-06-08T11:13:50.482Z,96697.59
2019-06-08T11:16:18.909Z,96708.87
2019-06-08T11:18:50.790Z,96700.19
2019-06-08T11:21:15.300Z,96710.38
2019-06-08T11:23:42.675Z,96719.68
2019-06-08T11:26:19.156Z,96719.89
2019-06-08T11:28:39.406Z,96711.30
2019-06-08T11:31:12.022Z,96703.09
2019-06-08T11:33:35.639Z,96710.88
2019-06-08T11:36:06.133Z,96707.51
2019-06-08T11:38:31.670Z,96709.05
2019-06-08T11:41:02.067Z,96714.15
2019-06-08T11:43:28.709Z,96714.61
2019-06-08T11:45:58.278Z,96724.73
2019-06-08T11:48:28.380Z,96714.80
2019-06-08T11:50:55.017Z,96713.58
2019-06-08T11:53:22.360Z,96716.00
2019-06-08T11:55:51.061Z,96713.03
2019-06-08T11:58:22.155Z,96709.88
2019-06-08T12:00:48.887Z,96719.42
2019-06-08T12:03:19.192Z,96718.66
2019-06-08T12:05:47.869Z,96715.78
2019-06-08T12:08:17.647Z,96712.02
2019-06-08T12:10:44.097Z,96708.80
2019-06-08T12:13:12.865Z,96720.63
2019-06-08T12:15:41.753Z,96715.25
2019-06-08T12:18:10.958Z,96713.92
2019-06-08T12:20:37.782Z,96707.75
2019-06-08T12:23:05.910Z,96712.19
2019-06-08T12:25:37.745Z,96710.66
2019-06-08T12:30:38.438Z,96702.30
2019-06-08T12:35:57.951Z,96699.52
2019-06-08T12:38:34.245Z,96702.38
2019-06-08T12:41:01.127Z,96693.14
2019-06-08T12:46:01.447Z,96698.77
2019-06-08T12:48:29.588Z,96710.86
2019-06-08T12:51:17.269Z,96698.27
2019-06-08T12:56:22.237Z,96695.77
2019-06-08T12:58:47.625Z,96686.27
2019-06-08T13:01:15.047Z,96686.27
2019-06-08T13:03:42.400Z,96692.28
2019-06-08T13:06:12.071Z,96700.08
2019-06-08T13:08:38.549Z,96706.30
2019-06-08T13:11:14.150Z,96717.55
2019-06-08T13:13:41.467Z,96705.69
2019-06-08T13:16:08.821Z,96701.22
2019-06-08T13:18:40.457Z,96704.80
2019-06-08T13:21:16.636Z,96707.23
2019-06-08T13:26:11.471Z,96695.73
2019-06-08T13:31:14.782Z,96693.91
2019-06-08T13:33:43.997Z,96694.63
2019-06-08T13:36:12.444Z,96706.88
2019-06-08T13:38:39.621Z,96705.33
2019-06-08T13:41:08.620Z,96707.77
2019-06-08T13:43:35.407Z,96698.24
2019-06-08T13:46:02.465Z,96702.47
2019-06-08T13:48:43.766Z,96688.44
2019-06-08T13:51:13.930Z,96690.95
2019-06-08T13:53:41.327Z,96691.83
2019-06-08T13:56:08.381Z,96691.00
2019-06-08T13:58:38.108Z,96695.89
2019-06-08T14:01:05.226Z,96689.46
2019-06-08T14:03:38.655Z,96696.11
2019-06-08T14:06:07.668Z,96692.70
2019-06-08T14:08:34.826Z,96697.66
2019-06-08T14:11:02.226Z,96689.31
2019-06-08T14:13:34.076Z,96697.00
2019-06-08T14:18:42.877Z,96686.59
2019-06-08T14:21:09.947Z,96682.97
2019-06-08T14:23:41.458Z,96686.73
2019-06-08T14:26:08.405Z,96686.95
2019-06-08T14:28:37.945Z,96689.03
2019-06-08T14:31:08.136Z,96684.81
2019-06-08T14:33:35.060Z,96687.47
2019-06-08T14:36:02.119Z,96681.23
2019-06-08T14:38:37.936Z,96676.73
2019-06-08T14:40:59.261Z,96674.95
2019-06-08T14:43:29.972Z,96682.94
2019-06-08T14:45:57.959Z,96677.02
2019-06-08T14:48:31.184Z,96680.86
2019-06-08T14:50:54.437Z,96677.21
2019-06-08T14:53:22.961Z,96681.57
2019-06-08T14:56:04.879Z,96680.38
2019-06-08T14:58:24.083Z,96681.05
2019-06-08T15:00:48.869Z,96676.50
2019-06-08T15:03:18.079Z,96674.88
2019-06-08T15:05:49.659Z,96673.33
2019-06-08T15:08:17.540Z,96675.25
2019-06-08T15:10:44.667Z,96670.75
2019-06-08T15:13:11.799Z,96670.23
2019-06-08T15:15:39.151Z,96667.79
2019-06-08T15:18:10.499Z,96664.39
2019-06-08T15:20:37.809Z,96668.38
2019-06-08T15:23:04.312Z,96664.84
2019-06-08T15:25:32.901Z,96662.33
2019-06-08T15:28:01.311Z,96665.42
2019-06-08T15:30:31.014Z,96664.76
2019-06-08T15:32:58.675Z,96658.33
2019-06-08T15:35:27.345Z,96655.45
2019-06-08T15:37:58.206Z,96662.39
2019-06-08T15:40:25.660Z,96657.97
2019-06-08T15:42:52.882Z,96658.63
2019-06-08T15:47:52.905Z,96656.86
2019-06-08T15:50:22.235Z,96650.52
2019-06-08T15:52:49.372Z,96658.19
2019-06-08T15:55:19.353Z,96644.81
2019-06-08T15:57:45.601Z,96652.36
2019-06-08T16:00:12.896Z,96650.36
2019-06-08T16:02:44.090Z,96654.06
2019-06-08T16:05:12.602Z,96654.05
2019-06-08T16:07:39.596Z,96653.46
2019-06-08T16:10:06.648Z,96655.64
2019-06-08T16:12:35.111Z,96655.61
2019-06-08T16:15:03.508Z,96653.02
2019-06-08T16:17:37.331Z,96654.80
2019-06-08T16:20:04.394Z,96654.80
2019-06-08T16:22:31.816Z,96653.98
2019-06-08T16:27:32.176Z,96651.40
2019-06-08T16:29:59.843Z,96651.84
2019-06-08T16:32:27.438Z,96649.55
2019-06-08T16:34:54.496Z,96656.30
2019-06-08T16:37:21.552Z,96656.72
2019-06-08T16:39:51.752Z,96655.46
2019-06-08T16:45:14.763Z,96653.02
2019-06-08T16:47:47.068Z,96663.05
2019-06-08T16:50:24.517Z,96667.08
2019-06-08T16:55:53.196Z,96660.67
2019-06-08T16:58:27.875Z,96665.39
2019-06-08T17:00:55.314Z,96666.56
2019-06-08T17:03:30.781Z,96662.94
2019-06-08T17:05:57.970Z,96663.19
2019-06-08T17:08:29.478Z,96669.91
2019-06-08T17:10:58.896Z,96666.95
2019-06-08T17:13:40.119Z,96671.38
2019-06-08T17:16:08.752Z,96677.72
2019-06-08T17:18:49.228Z,96677.55
2019-06-08T17:21:16.393Z,96670.58
2019-06-08T17:23:44.463Z,96671.48
2019-06-08T17:26:12.657Z,96672.94
2019-06-08T17:28:41.492Z,96674.39
2019-06-08T17:31:08.867Z,96671.19
2019-06-08T17:33:49.005Z,96673.64
2019-06-08T17:36:16.054Z,96675.09
2019-06-08T17:38:43.574Z,96679.23
2019-06-08T17:41:11.069Z,96673.76
2019-06-08T17:43:38.247Z,96674.18
2019-06-08T17:46:05.255Z,96674.03
2019-06-08T17:48:38.670Z,96673.56
2019-06-08T17:51:06.121Z,96677.05
2019-06-08T17:53:35.044Z,96673.83
2019-06-08T17:56:02.479Z,96679.47
2019-06-08T17:58:30.849Z,96682.53
2019-06-08T18:00:58.211Z,96677.86
2019-06-08T18:03:25.266Z,96678.70
2019-06-08T18:05:52.301Z,96679.03
2019-06-08T18:08:19.653Z,96676.49
2019-06-08T18:10:48.329Z,96681.22
2019-06-08T18:13:15.424Z,96675.94
2019-06-08T18:15:43.697Z,96677.77
2019-06-08T18:18:11.536Z,96679.92
2019-06-08T18:20:40.550Z,96681.26
2019-06-08T18:23:08.165Z,96686.36
2019-06-08T18:25:38.794Z,96682.91
2019-06-08T18:28:10.208Z,96685.06
2019-06-08T18:30:34.505Z,96688.26
2019-06-08T18:33:01.993Z,96690.70
2019-06-08T18:35:29.370Z,96691.52
2019-06-08T18:37:57.836Z,96686.44
2019-06-08T18:40:27.270Z,96695.70
2019-06-08T18:42:54.413Z,96694.06
2019-06-08T18:45:21.694Z,96697.00
2019-06-08T18:47:49.023Z,96694.55
2019-06-08T18:50:17.276Z,96696.67
2019-06-08T18:52:45.383Z,96696.95
2019-06-08T18:55:13.791Z,96702.55
2019-06-08T18:57:42.634Z,96699.88
2019-06-08T19:00:11.801Z,96698.54
2019-06-08T19:02:41.987Z,96704.84
2019-06-08T19:05:08.406Z,96711.83
2019-06-08T19:07:36.896Z,96714.33
2019-06-08T19:10:16.538Z,96711.55
2019-06-08T19:12:44.777Z,96713.54
2019-06-08T19:15:12.576Z,96713.81
2019-06-08T19:17:46.552Z,96712.97
2019-06-08T19:20:09.021Z,96721.44
2019-06-08T19:22:38.454Z,96723.60
2019-06-08T19:25:07.695Z,96727.47
2019-06-08T19:27:34.187Z,96730.71
2019-06-08T19:30:01.610Z,96729.25
2019-06-08T19:32:28.837Z,96729.83
2019-06-08T19:34:57.990Z,96726.75
2019-06-08T19:40:14.586Z,96743.09
2019-06-08T19:42:51.132Z,96744.91
2019-06-08T19:45:10.388Z,96743.28
2019-06-08T19:47:38.422Z,96739.13
2019-06-08T19:50:07.782Z,96744.15
2019-06-08T19:52:34.492Z,96752.12
2019-06-08T19:55:01.827Z,96753.18
2019-06-08T19:57:28.925Z,96752.55
2019-06-08T19:59:57.574Z,96755.42
2019-06-08T20:02:27.118Z,96760.63
2019-06-08T20:04:53.817Z,96756.59
2019-06-08T20:07:21.212Z,96753.56
2019-06-08T20:09:49.669Z,96755.74
2019-06-08T20:12:18.610Z,96762.59
2019-06-08T20:14:48.025Z,96765.28
2019-06-08T20:17:17.208Z,96770.28
2019-06-08T20:19:44.803Z,96767.02
2019-06-08T20:22:11.913Z,96774.59
2019-06-08T20:24:39.275Z,96775.47
2019-06-08T20:27:07.711Z,96771.88
2019-06-08T20:29:37.978Z,96780.96
2019-06-08T20:32:04.815Z,96779.87
2019-06-08T20:34:32.150Z,96780.23
2019-06-08T20:37:01.387Z,96787.36
2019-06-08T20:39:27.952Z,96790.21
2019-06-08T20:41:56.226Z,96788.90
2019-06-08T20:44:29.959Z,96787.94
2019-06-08T20:46:57.620Z,96785.17
2019-06-08T20:49:24.576Z,96787.55
2019-06-08T20:51:52.542Z,96789.23
2019-06-08T20:54:19.663Z,96791.55
2019-06-08T20:56:47.889Z,96793.22
2019-06-08T20:59:29.632Z,96792.58
2019-06-08T21:01:44.200Z,96790.13
2019-06-08T21:04:11.575Z,96789.28
2019-06-08T21:06:38.643Z,96788.14
2019-06-08T21:09:07.676Z,96794.41
2019-06-08T21:11:34.772Z,96794.77
2019-06-08T21:14:01.814Z,96803.51
2019-06-08T21:16:29.004Z,96798.60
2019-06-08T21:18:57.990Z,96803.55
2019-06-08T21:21:25.517Z,96799.42
2019-06-08T21:23:54.776Z,96800.73
2019-06-08T21:26:21.968Z,96802.23
2019-06-08T21:28:52.297Z,96792.52
2019-06-08T21:31:18.116Z,96797.96
2019-06-08T21:33:49.081Z,96794.37
2019-06-08T21:36:14.166Z,96801.66
2019-06-08T21:38:41.204Z,96801.02
2019-06-08T21:41:08.479Z,96796.28
2019-06-08T21:43:37.422Z,96803.53
2019-06-08T21:46:04.901Z,96807.52
2019-06-08T21:48:31.945Z,96810.85
2019-06-08T21:51:01.509Z,96812.66
2019-06-08T21:53:29.326Z,96817.14
2019-06-08T21:55:56.388Z,96815.35
2019-06-08T21:58:23.728Z,96812.58
2019-06-08T22:00:51.173Z,96815.20
2019-06-08T22:03:18.852Z,96814.24
2019-06-08T22:05:47.319Z,96820.34
2019-06-08T22:08:14.422Z,96816.43
2019-06-08T22:10:41.474Z,96826.12
2019-06-08T22:13:12.248Z,96820.41
2019-06-08T22:15:38.056Z,96819.44
2019-06-08T22:18:07.802Z,96819.93
2019-06-08T22:20:33.904Z,96819.29
2019-06-08T22:23:01.191Z,96822.27
2019-06-08T22:25:29.316Z,96817.50
2019-06-08T22:27:58.414Z,96818.84
2019-06-08T22:30:36.419Z,96825.27
2019-06-08T22:32:55.606Z,96821.67
2019-06-08T22:35:23.067Z,96823.97
2019-06-08T22:37:51.713Z,96821.84
2019-06-08T22:40:18.884Z,96823.00
2019-06-08T22:42:47.909Z,96819.73
2019-06-08T22:45:14.917Z,96824.81
2019-06-08T22:47:42.304Z,96819.06
2019-06-08T22:50:09.657Z,96817.47
2019-06-08T22:52:37.521Z,96823.58
2019-06-08T22:55:09.692Z,96825.89
2019-06-08T22:57:34.073Z,96818.03
2019-06-08T23:00:07.853Z,96814.91
2019-06-08T23:02:31.182Z,96817.70
2019-06-08T23:05:01.337Z,96816.73
2019-06-08T23:07:32.367Z,96823.99
2019-06-08T23:09:59.337Z,96819.11
2019-06-08T23:12:24.736Z,96825.70
2019-06-08T23:14:52.114Z,96825.58
2019-06-08T23:17:19.406Z,96827.72
2019-06-08T23:19:48.169Z,96823.11
2019-06-08T23:22:17.644Z,96822.63
2019-06-08T23:24:44.471Z,96818.38
2019-06-08T23:27:11.858Z,96816.09
2019-06-08T23:29:38.906Z,96820.68
2019-06-08T23:32:11.111Z,96821.00
2019-06-08T23:34:35.001Z,96815.58
2019-06-08T23:37:04.537Z,96816.41
2019-06-08T23:39:31.033Z,96816.92
2019-06-08T23:41:58.076Z,96817.91
2019-06-08T23:44:25.221Z,96812.98
2019-06-08T23:46:52.550Z,96815.75
2019-06-08T23:49:21.033Z,96807.05
2019-06-08T23:51:48.084Z,96805.56
2019-06-08T23:54:15.433Z,96810.98
2019-06-08T23:56:42.490Z,96807.39
2019-06-08T23:59:09.832Z,96815.28
